Time,TemperatureF,DewpointF,PressureIn,WindDirection,WindDirectionDegrees,WindSpeedMPH,WindSpeedGustMPH,Humidity,HourlyPrecipIn,Conditions,Clouds,dailyrainin,SoftwareType,DateUTC
2013-02-09 00:09:00,31.8,29.0,30.28,ENE,70,0.0,4.0,88,0.00,,,0.00,weatherlink.com 1.10,2013-02-09 05:09:00,
2013-02-09 00:24:00,31.8,28.0,30.29,ENE,68,0.0,2.0,87,0.00,,,0.00,weatherlink.com 1.10,2013-02-09 05:24:00,
2013-02-09 00:39:00,31.5,28.0,30.29,NNW,330,0.0,1.0,87,0.00,,,0.00,weatherlink.com 1.10,2013-02-09 05:39:00,
2013-02-09 00:54:00,31.3,28.0,30.29,ENE,70,0.0,3.0,88,0.00,,,0.00,weatherlink.com 1.10,2013-02-09 05:54:00,
2013-02-09 01:09:00,31.1,28.0,30.30,NNW,344,0.0,1.0,88,0.00,,,0.00,weatherlink.com 1.10,2013-02-09 06:09:00,
2013-02-09 01:24:00,31.2,28.0,30.31,ENE,77,0.0,3.0,88,0.00,,,0.00,weatherlink.com 1.10,2013-02-09 06:24:00,
2013-02-09 01:39:00,31.1,28.0,30.31,ENE,74,0.0,2.0,88,0.00,,,0.00,weatherlink.com 1.10,2013-02-09 06:39:00,
2013-02-09 01:54:00,30.6,28.0,30.31,ENE,77,0.0,1.0,89,0.00,,,0.00,weatherlink.com 1.10,2013-02-09 06:54:00,
2013-02-09 02:10:00,30.5,28.0,30.32,East,91,0.0,1.0,89,0.00,,,0.00,weatherlink.com 1.10,2013-02-09 07:10:00,
2013-02-09 02:25:00,30.5,28.0,30.33,North,358,0.0,4.0,89,0.00,,,0.00,weatherlink.com 1.10,2013-02-09 07:25:00,
2013-02-09 02:39:00,30.6,28.0,30.33,East,81,0.0,2.0,89,0.00,,,0.00,weatherlink.com 1.10,2013-02-09 07:39:00,
2013-02-09 02:54:00,30.2,27.0,30.33,East,98,0.0,0.0,89,0.00,,,0.00,weatherlink.com 1.10,2013-02-09 07:54:00,
2013-02-09 03:10:00,30.1,27.0,30.33,NE,34,0.0,1.0,89,0.00,,,0.00,weatherlink.com 1.10,2013-02-09 08:10:00,
2013-02-09 03:24:00,29.8,27.0,30.33,East,90,0.0,1.0,89,0.00,,,0.00,weatherlink.com 1.10,2013-02-09 08:24:00,
2013-02-09 03:40:00,29.5,27.0,30.33,East,83,0.0,0.0,90,0.00,,,0.00,weatherlink.com 1.10,2013-02-09 08:40:00,
2013-02-09 03:54:00,29.4,27.0,30.34,ENE,64,0.0,0.0,89,0.00,,,0.00,weatherlink.com 1.10,2013-02-09 08:54:00,
2013-02-09 04:09:00,29.1,27.0,30.34,South,187,0.0,0.0,90,0.00,,,0.00,weatherlink.com 1.10,2013-02-09 09:09:00,
2013-02-09 04:25:00,28.9,26.0,30.34,ESE,114,0.0,0.0,90,0.00,,,0.00,weatherlink.com 1.10,2013-02-09 09:25:00,
2013-02-09 04:40:00,28.8,26.0,30.35,SSE,158,0.0,0.0,89,0.00,,,0.00,weatherlink.com 1.10,2013-02-09 09:40:00,
2013-02-09 04:55:00,28.9,26.0,30.36,SSW,210,0.0,2.0,89,0.00,,,0.00,weatherlink.com 1.10,2013-02-09 09:55:00,
2013-02-09 05:10:00,28.8,26.0,30.36,East,91,0.0,1.0,90,0.00,,,0.00,weatherlink.com 1.10,2013-02-09 10:10:00,
2013-02-09 05:25:00,28.4,26.0,30.37,NNW,346,0.0,0.0,90,0.00,,,0.00,weatherlink.com 1.10,2013-02-09 10:25:00,
2013-02-09 05:40:00,28.3,26.0,30.37,SE,126,0.0,2.0,90,0.00,,,0.00,weatherlink.com 1.10,2013-02-09 10:40:00,
2013-02-09 05:55:00,28.2,26.0,30.37,East,79,0.0,0.0,90,0.00,,,0.00,weatherlink.com 1.10,2013-02-09 10:55:00,
2013-02-09 06:10:00,27.9,25.0,30.38,ENE,72,0.0,0.0,90,0.00,,,0.00,weatherlink.com 1.10,2013-02-09 11:10:00,
2013-02-09 06:25:00,27.6,25.0,30.38,ENE,72,0.0,0.0,90,0.00,,,0.00,weatherlink.com 1.10,2013-02-09 11:25:00,
2013-02-09 06:40:00,27.6,25.0,30.38,East,83,0.0,0.0,90,0.00,,,0.00,weatherlink.com 1.10,2013-02-09 11:40:00,
2013-02-09 06:56:00,27.4,25.0,30.38,East,84,0.0,0.0,90,0.00,,,0.00,weatherlink.com 1.10,2013-02-09 11:56:00,
2013-02-09 07:10:00,27.2,25.0,30.38,East,84,0.0,0.0,91,0.00,,,0.00,weatherlink.com 1.10,2013-02-09 12:10:00,
2013-02-09 07:25:00,27.1,25.0,30.39,East,83,0.0,0.0,91,0.00,,,0.00,weatherlink.com 1.10,2013-02-09 12:25:00,
2013-02-09 07:40:00,27.1,25.0,30.39,East,83,0.0,0.0,91,0.00,,,0.00,weatherlink.com 1.10,2013-02-09 12:40:00,
2013-02-09 07:55:00,27.1,25.0,30.40,East,84,0.0,0.0,91,0.00,,,0.00,weatherlink.com 1.10,2013-02-09 12:55:00,
2013-02-09 08:10:00,26.9,25.0,30.41,ESE,118,0.0,0.0,91,0.00,,,0.00,weatherlink.com 1.10,2013-02-09 13:10:00,
2013-02-09 08:25:00,27.0,25.0,30.41,ESE,119,0.0,0.0,91,0.00,,,0.00,weatherlink.com 1.10,2013-02-09 13:25:00,
2013-02-09 08:40:00,27.0,25.0,30.42,ESE,119,0.0,0.0,91,0.00,,,0.00,weatherlink.com 1.10,2013-02-09 13:40:00,
2013-02-09 08:55:00,27.3,25.0,30.43,ESE,119,0.0,0.0,91,0.00,,,0.00,weatherlink.com 1.10,2013-02-09 13:55:00,
2013-02-09 09:10:00,28.0,26.0,30.43,ESE,121,0.0,0.0,91,0.00,,,0.00,weatherlink.com 1.10,2013-02-09 14:10:00,
2013-02-09 09:25:00,29.5,27.0,30.43,ESE,121,0.0,0.0,90,0.00,,,0.00,weatherlink.com 1.10,2013-02-09 14:25:00,
2013-02-09 09:40:00,31.4,28.0,30.44,ESE,119,0.0,0.0,86,0.00,,,0.00,weatherlink.com 1.10,2013-02-09 14:40:00,
2013-02-09 09:55:00,33.0,29.0,30.44,ESE,119,0.0,0.0,84,0.00,,,0.00,weatherlink.com 1.10,2013-02-09 14:55:00,
2013-02-09 10:10:00,35.1,30.0,30.45,ESE,118,0.0,0.0,81,0.00,,,0.00,weatherlink.com 1.10,2013-02-09 15:10:00,
2013-02-09 10:25:00,37.4,29.0,30.45,ESE,118,0.0,0.0,71,0.00,,,0.00,weatherlink.com 1.10,2013-02-09 15:25:00,
2013-02-09 10:41:00,39.6,27.0,30.45,NNW,347,0.0,0.0,61,0.00,,,0.00,weatherlink.com 1.10,2013-02-09 15:41:00,
2013-02-09 10:55:00,42.1,29.0,30.45,ENE,60,0.0,1.0,60,0.00,,,0.00,weatherlink.com 1.10,2013-02-09 15:55:00,
2013-02-09 11:11:00,44.0,29.0,30.45,NE,46,0.0,0.0,55,0.00,,,0.00,weatherlink.com 1.10,2013-02-09 16:11:00,
2013-02-09 11:26:00,46.3,31.0,30.45,West,281,0.0,0.0,55,0.00,,,0.00,weatherlink.com 1.10,2013-02-09 16:26:00,
2013-02-09 11:41:00,48.1,31.0,30.45,East,86,0.0,0.0,52,0.00,,,0.00,weatherlink.com 1.10,2013-02-09 16:41:00,
2013-02-09 11:56:00,49.7,31.0,30.44,NW,317,0.0,2.0,49,0.00,,,0.00,weatherlink.com 1.10,2013-02-09 16:56:00,
2013-02-09 12:11:00,51.8,32.0,30.44,West,274,0.0,2.0,47,0.00,,,0.00,weatherlink.com 1.10,2013-02-09 17:11:00,
2013-02-09 12:26:00,52.3,31.0,30.44,WSW,252,0.0,3.0,45,0.00,,,0.00,weatherlink.com 1.10,2013-02-09 17:26:00,
2013-02-09 12:41:00,53.7,28.0,30.43,WNW,286,0.0,0.0,38,0.00,,,0.00,weatherlink.com 1.10,2013-02-09 17:41:00,
2013-02-09 12:56:00,55.6,29.0,30.42,WNW,293,3.0,3.0,36,0.00,,,0.00,weatherlink.com 1.10,2013-02-09 17:56:00,
2013-02-09 13:11:00,56.2,30.0,30.41,West,276,0.0,3.0,37,0.00,,,0.00,weatherlink.com 1.10,2013-02-09 18:11:00,
2013-02-09 13:26:00,58.2,27.0,30.40,WSW,248,0.0,1.0,30,0.00,,,0.00,weatherlink.com 1.10,2013-02-09 18:26:00,
2013-02-09 13:41:00,59.6,24.0,30.39,East,80,0.0,0.0,25,0.00,,,0.00,weatherlink.com 1.10,2013-02-09 18:41:00,
2013-02-09 13:56:00,60.1,16.0,30.39,ENE,63,0.0,1.0,18,0.00,,,0.00,weatherlink.com 1.10,2013-02-09 18:56:00,
2013-02-09 14:12:00,60.7,11.0,30.38,South,172,0.0,0.0,14,0.00,,,0.00,weatherlink.com 1.10,2013-02-09 19:12:00,
2013-02-09 14:26:00,62.0,10.0,30.37,SE,127,0.0,2.0,13,0.00,,,0.00,weatherlink.com 1.10,2013-02-09 19:26:00,
2013-02-09 14:42:00,63.4,12.0,30.37,ESE,115,0.0,0.0,13,0.00,,,0.00,weatherlink.com 1.10,2013-02-09 19:42:00,
2013-02-09 14:56:00,63.2,17.0,30.37,NE,56,0.0,1.0,17,0.00,,,0.00,weatherlink.com 1.10,2013-02-09 19:56:00,
2013-02-09 15:12:00,63.7,22.0,30.36,WSW,245,0.0,3.0,20,0.00,,,0.00,weatherlink.com 1.10,2013-02-09 20:12:00,
2013-02-09 15:26:00,63.8,27.0,30.36,WNW,284,0.0,2.0,25,0.00,,,0.00,weatherlink.com 1.10,2013-02-09 20:26:00,
2013-02-09 15:41:00,63.5,24.0,30.37,West,276,0.0,2.0,22,0.00,,,0.00,weatherlink.com 1.10,2013-02-09 20:41:00,
2013-02-09 15:57:00,63.5,26.0,30.36,WSW,252,0.0,2.0,24,0.00,,,0.00,weatherlink.com 1.10,2013-02-09 20:57:00,
2013-02-09 16:12:00,63.6,28.0,30.36,SW,233,0.0,0.0,26,0.00,,,0.00,weatherlink.com 1.10,2013-02-09 21:12:00,
2013-02-09 16:27:00,63.2,27.0,30.37,WSW,256,1.0,1.0,25,0.00,,,0.00,weatherlink.com 1.10,2013-02-09 21:27:00,
2013-02-09 16:41:00,60.8,27.0,30.36,West,274,0.0,1.0,28,0.00,,,0.00,weatherlink.com 1.10,2013-02-09 21:41:00,
2013-02-09 16:56:00,61.1,23.0,30.37,SSW,193,0.0,1.0,23,0.00,,,0.00,weatherlink.com 1.10,2013-02-09 21:56:00,
2013-02-09 17:11:00,59.3,27.0,30.37,SW,217,0.0,1.0,29,0.00,,,0.00,weatherlink.com 1.10,2013-02-09 22:11:00,
2013-02-09 17:26:00,58.6,28.0,30.37,WSW,250,0.0,0.0,31,0.00,,,0.00,weatherlink.com 1.10,2013-02-09 22:26:00,
2013-02-09 17:42:00,57.8,28.0,30.37,WNW,289,0.0,0.0,32,0.00,,,0.00,weatherlink.com 1.10,2013-02-09 22:42:00,
2013-02-09 17:56:00,54.7,22.0,30.37,NE,55,0.0,0.0,28,0.00,,,0.00,weatherlink.com 1.10,2013-02-09 22:56:00,
2013-02-09 18:11:00,52.6,23.0,30.38,NE,55,0.0,0.0,31,0.00,,,0.00,weatherlink.com 1.10,2013-02-09 23:11:00,
2013-02-09 18:27:00,51.0,23.0,30.39,NE,34,0.0,0.0,33,0.00,,,0.00,weatherlink.com 1.10,2013-02-09 23:27:00,
2013-02-09 18:42:00,50.0,23.0,30.39,NE,34,0.0,0.0,35,0.00,,,0.00,weatherlink.com 1.10,2013-02-09 23:42:00,
2013-02-09 18:57:00,50.1,23.0,30.39,NE,53,0.0,0.0,34,0.00,,,0.00,weatherlink.com 1.10,2013-02-09 23:57:00,
2013-02-09 19:12:00,49.7,23.0,30.39,ENE,64,0.0,0.0,35,0.00,,,0.00,weatherlink.com 1.10,2013-02-10 00:12:00,
2013-02-09 19:27:00,48.7,23.0,30.40,ENE,64,0.0,0.0,37,0.00,,,0.00,weatherlink.com 1.10,2013-02-10 00:27:00,
2013-02-09 19:42:00,47.7,24.0,30.40,ENE,64,0.0,0.0,39,0.00,,,0.00,weatherlink.com 1.10,2013-02-10 00:42:00,
2013-02-09 19:57:00,47.1,24.0,30.41,ENE,63,0.0,0.0,40,0.00,,,0.00,weatherlink.com 1.10,2013-02-10 00:57:00,
2013-02-09 20:12:00,45.7,24.0,30.41,ENE,64,0.0,0.0,43,0.00,,,0.00,weatherlink.com 1.10,2013-02-10 01:12:00,
2013-02-09 20:27:00,44.4,25.0,30.40,ENE,64,0.0,0.0,46,0.00,,,0.00,weatherlink.com 1.10,2013-02-10 01:27:00,
2013-02-09 20:42:00,44.3,25.0,30.40,ENE,64,0.0,0.0,46,0.00,,,0.00,weatherlink.com 1.10,2013-02-10 01:42:00,
2013-02-09 20:57:00,43.6,25.0,30.40,East,80,0.0,0.0,48,0.00,,,0.00,weatherlink.com 1.10,2013-02-10 01:57:00,
2013-02-09 21:12:00,43.7,24.0,30.41,East,81,0.0,0.0,47,0.00,,,0.00,weatherlink.com 1.10,2013-02-10 02:12:00,
2013-02-09 21:27:00,43.5,24.0,30.40,East,80,0.0,0.0,46,0.00,,,0.00,weatherlink.com 1.10,2013-02-10 02:27:00,
2013-02-09 21:42:00,43.5,25.0,30.40,East,81,0.0,0.0,48,0.00,,,0.00,weatherlink.com 1.10,2013-02-10 02:42:00,
2013-02-09 21:57:00,42.8,25.0,30.40,East,80,0.0,0.0,50,0.00,,,0.00,weatherlink.com 1.10,2013-02-10 02:57:00,
2013-02-09 22:12:00,43.4,26.0,30.40,NE,44,0.0,0.0,50,0.00,,,0.00,weatherlink.com 1.10,2013-02-10 03:12:00,
2013-02-09 22:28:00,44.1,26.0,30.40,ENE,60,0.0,0.0,49,0.00,,,0.00,weatherlink.com 1.10,2013-02-10 03:28:00,
2013-02-09 22:42:00,44.1,26.0,30.40,SSE,150,0.0,0.0,50,0.00,,,0.00,weatherlink.com 1.10,2013-02-10 03:42:00,
2013-02-09 22:57:00,43.9,26.0,30.41,East,101,0.0,0.0,50,0.00,,,0.00,weatherlink.com 1.10,2013-02-10 03:57:00,
2013-02-09 23:12:00,44.1,26.0,30.40,SE,124,0.0,0.0,49,0.00,,,0.00,weatherlink.com 1.10,2013-02-10 04:12:00,
2013-02-09 23:27:00,44.0,26.0,30.40,SE,124,0.0,0.0,49,0.00,,,0.00,weatherlink.com 1.10,2013-02-10 04:27:00,
2013-02-09 23:42:00,44.4,25.0,30.40,SE,126,0.0,0.0,47,0.00,,,0.00,weatherlink.com 1.10,2013-02-10 04:42:00,
2013-02-09 23:57:00,44.4,25.0,30.40,SE,124,0.0,0.0,46,0.00,,,0.00,weatherlink.com 1.10,2013-02-10 04:57:00,